Time;durP1;ratioP1;P1;durP2;ratioP2;P2;SDS_P1;SDS_P2;PMS_P1;PMS_P2;Temp;Humidity;BMP_temperature;BMP_pressure;BME280_temperature;BME280_humidity;BME280_pressure;Samples;Min_cycle;Max_cycle;Signal;HPM_P1;HPM_P2
2022/02/16 00:00:15;;;;;;;11.45;5.78;;;;;;;0.98;61.20;100962.23;1757344;79;21115;-58
2022/02/16 00:02:43;;;;;;;10.68;5.58;;;;;;;1.00;61.24;100960.44;1743011;80;21102;-58
2022/02/16 00:05:13;;;;;;;9.70;5.75;;;;;;;1.00;61.32;100959.98;1747032;79;21043;-59
2022/02/16 00:07:41;;;;;;;10.78;5.47;;;;;;;1.03;61.29;100962.48;1765313;79;21101;-58
2022/02/16 00:10:10;;;;;;;10.20;5.75;;;;;;;1.00;61.33;100961.27;1765011;79;21602;-58
2022/02/16 00:12:39;;;;;;;10.60;5.47;;;;;;;1.03;61.36;100960.34;1762604;79;22090;-58
2022/02/16 00:15:07;;;;;;;10.15;6.05;;;;;;;1.01;61.36;100962.11;1765952;78;21081;-59
2022/02/16 00:17:36;;;;;;;9.88;5.28;;;;;;;1.02;61.40;100957.34;1769695;79;21054;-59
2022/02/16 00:20:05;;;;;;;10.30;5.40;;;;;;;1.02;61.47;100954.75;1751803;80;21058;-58
2022/02/16 00:22:33;;;;;;;10.82;5.12;;;;;;;1.03;61.24;100951.28;1780152;78;21051;-58
2022/02/16 00:25:01;;;;;;;9.40;5.47;;;;;;;1.01;61.12;100945.27;1761357;78;21083;-58
2022/02/16 00:27:27;;;;;;;11.90;5.55;;;;;;;0.99;61.10;100940.12;1766605;79;21165;-58
2022/02/16 00:29:54;;;;;;;13.10;6.20;;;;;;;0.97;61.24;100935.45;1766376;78;21030;-58
2022/02/16 00:32:21;;;;;;;8.85;5.22;;;;;;;0.98;61.12;100924.20;1745489;79;21101;-58
2022/02/16 00:34:47;;;;;;;16.35;5.60;;;;;;;0.97;61.05;100917.31;1765371;79;21110;-59
2022/02/16 00:37:15;;;;;;;12.43;6.10;;;;;;;0.95;60.83;100917.81;1749926;80;21033;-59
2022/02/16 00:39:42;;;;;;;11.22;6.35;;;;;;;0.93;61.03;100923.50;1773951;78;21710;-59
2022/02/16 00:42:08;;;;;;;10.53;5.78;;;;;;;0.93;61.23;100916.56;1770074;79;22321;-58
2022/02/16 00:44:36;;;;;;;12.73;6.08;;;;;;;0.93;61.32;100918.31;1748395;80;21390;-59
2022/02/16 00:47:04;;;;;;;11.97;5.80;;;;;;;0.95;61.28;100920.86;1763165;79;21097;-59
2022/02/16 00:49:33;;;;;;;11.40;5.65;;;;;;;0.95;61.31;100910.50;1762904;78;22391;-58
2022/02/16 00:51:59;;;;;;;9.45;5.70;;;;;;;0.96;61.32;100904.40;1740226;80;21860;-59
2022/02/16 00:54:29;;;;;;;10.32;5.67;;;;;;;0.98;61.33;100913.00;1763236;79;21015;-58
2022/02/16 00:56:57;;;;;;;15.72;5.50;;;;;;;0.99;61.45;100909.48;1749987;79;21066;-58
2022/02/16 00:59:25;;;;;;;9.00;5.47;;;;;;;1.01;61.58;100910.28;1769355;79;21062;-58
2022/02/16 01:01:52;;;;;;;9.08;5.53;;;;;;;1.03;61.46;100907.22;1766605;79;21960;-58
2022/02/16 01:04:19;;;;;;;9.53;4.87;;;;;;;1.07;61.38;100903.16;1770033;78;21520;-58
2022/02/16 01:06:47;;;;;;;14.23;5.65;;;;;;;1.07;61.35;100899.73;1743849;80;21070;-59
2022/02/16 01:09:14;;;;;;;10.80;5.45;;;;;;;1.12;61.34;100905.61;1765944;79;21018;-58
2022/02/16 01:11:41;;;;;;;11.35;6.42;;;;;;;1.15;61.37;100902.92;1777431;79;21121;-59
2022/02/16 01:14:08;;;;;;;9.75;5.37;;;;;;;1.17;61.31;100908.90;1744189;79;21390;-58
2022/02/16 01:16:37;;;;;;;14.65;6.70;;;;;;;1.19;61.42;100895.44;1766002;80;21364;-58
2022/02/16 01:19:06;;;;;;;9.83;6.08;;;;;;;1.25;61.45;100891.35;1769863;79;21054;-59
2022/02/16 01:21:33;;;;;;;9.25;6.28;;;;;;;1.26;61.40;100894.36;1766829;79;21069;-58
2022/02/16 01:24:00;;;;;;;11.60;6.08;;;;;;;1.32;61.18;100897.64;1774871;79;21100;-59
2022/02/16 01:26:27;;;;;;;8.98;5.20;;;;;;;1.32;61.23;100891.99;1682066;83;21042;-58
2022/02/16 01:28:59;;;;;;;13.88;6.42;;;;;;;1.35;61.28;100893.20;1709029;82;21144;-58
2022/02/16 01:31:26;;;;;;;11.60;6.10;;;;;;;1.40;61.36;100894.34;1703237;82;21705;-58
2022/02/16 01:33:53;;;;;;;13.68;6.75;;;;;;;1.44;61.29;100893.33;1703862;82;21141;-57
2022/02/16 01:36:19;;;;;;;8.40;5.62;;;;;;;1.45;61.21;100887.25;1720236;82;21070;-58
2022/02/16 01:38:48;;;;;;;10.63;5.30;;;;;;;1.49;61.26;100887.53;1719461;82;22192;-57
2022/02/16 01:41:18;;;;;;;12.10;6.08;;;;;;;1.52;61.27;100879.66;1727827;82;21020;-57
2022/02/16 01:43:52;;;;;;;14.25;6.47;;;;;;;1.55;61.27;100876.95;1699221;83;21149;-58
2022/02/16 01:46:19;;;;;;;9.55;5.65;;;;;;;1.59;61.46;100875.10;1730228;82;21058;-59
2022/02/16 01:48:47;;;;;;;9.65;5.50;;;;;;;1.66;61.64;100869.66;1687915;83;21121;-57
2022/02/16 01:51:14;;;;;;;13.03;6.97;;;;;;;1.69;61.61;100862.20;1711049;82;22357;-58
2022/02/16 01:53:42;;;;;;;13.13;5.75;;;;;;;1.73;61.52;100864.23;1713743;81;21109;-57
2022/02/16 01:56:10;;;;;;;10.05;6.22;;;;;;;1.74;61.50;100871.96;1713059;82;21085;-58
2022/02/16 01:58:40;;;;;;;10.55;5.08;;;;;;;1.76;61.40;100867.56;1711901;81;21507;-57
2022/02/16 02:01:14;;;;;;;9.05;5.95;;;;;;;1.75;61.70;100860.69;1712871;82;21059;-58
2022/02/16 02:03:43;;;;;;;10.18;5.85;;;;;;;1.80;61.82;100869.16;1707094;81;21162;-58
2022/02/16 02:06:12;;;;;;;8.93;5.33;;;;;;;1.81;61.74;100862.21;1687123;83;21219;-58
2022/02/16 02:08:41;;;;;;;9.53;5.42;;;;;;;1.81;61.73;100854.42;1715816;82;21015;-57
2022/02/16 02:11:08;;;;;;;12.60;4.55;;;;;;;1.82;61.74;100854.84;1705130;82;21070;-57
2022/02/16 02:13:58;;;;;;;9.95;5.65;;;;;;;1.81;61.75;100852.67;1703755;81;21067;-56
2022/02/16 02:16:26;;;;;;;12.60;5.50;;;;;;;1.81;61.87;100856.56;1701829;82;21160;-56
2022/02/16 02:18:53;;;;;;;13.30;5.30;;;;;;;1.81;62.01;100860.45;1705268;82;21060;-57
2022/02/16 02:21:22;;;;;;;16.35;5.92;;;;;;;1.81;62.09;100860.91;1699491;81;21552;-57
2022/02/16 02:23:49;;;;;;;11.15;6.85;;;;;;;1.83;62.17;100865.59;1708740;81;21027;-59
2022/02/16 02:26:17;;;;;;;12.95;6.67;;;;;;;1.83;62.08;100860.41;1683127;83;21129;-59
2022/02/16 02:28:45;;;;;;;20.37;6.85;;;;;;;1.86;61.94;100857.23;1685956;82;21071;-58
2022/02/16 02:31:12;;;;;;;12.35;7.10;;;;;;;1.85;61.86;100851.67;1698921;81;21055;-58
2022/02/16 02:33:39;;;;;;;12.23;6.42;;;;;;;1.87;61.74;100862.00;1699556;82;21567;-58
2022/02/16 02:36:06;;;;;;;14.98;7.58;;;;;;;1.84;61.83;100860.34;1702893;81;21020;-58
2022/02/16 02:38:33;;;;;;;11.78;7.17;;;;;;;1.86;61.96;100864.19;1687621;83;21106;-58
2022/02/16 02:41:03;;;;;;;14.68;8.23;;;;;;;1.88;61.98;100861.08;1701026;81;21082;-59
2022/02/16 02:43:33;;;;;;;12.18;7.25;;;;;;;1.90;62.00;100858.00;1705379;82;21087;-58
2022/02/16 02:46:01;;;;;;;11.90;6.65;;;;;;;1.95;62.03;100853.48;1702803;81;21094;-59
2022/02/16 02:48:31;;;;;;;13.20;6.25;;;;;;;2.00;61.86;100850.27;1710671;83;21115;-56
2022/02/16 02:50:57;;;;;;;11.53;6.25;;;;;;;2.00;61.85;100846.81;1705496;82;21034;-56
2022/02/16 02:53:24;;;;;;;11.60;6.35;;;;;;;1.99;62.02;100847.27;1706248;82;21118;-56
2022/02/16 02:55:50;;;;;;;10.25;6.47;;;;;;;2.01;62.15;100850.64;1702248;81;21054;-57
2022/02/16 02:58:17;;;;;;;11.93;6.55;;;;;;;2.06;62.28;100843.16;1711602;81;21103;-58
2022/02/16 03:00:46;;;;;;;13.38;7.15;;;;;;;2.10;62.31;100851.21;1685857;82;21765;-57
2022/02/16 03:03:13;;;;;;;12.88;5.78;;;;;;;2.13;62.25;100843.31;1691521;83;22204;-57
2022/02/16 03:05:39;;;;;;;10.18;5.45;;;;;;;2.16;62.17;100847.09;1764842;79;21174;-59
2022/02/16 03:08:06;;;;;;;13.75;6.10;;;;;;;2.20;62.02;100843.04;1766010;79;21730;-57
2022/02/16 03:10:33;;;;;;;11.18;5.85;;;;;;;2.20;62.02;100840.44;1760031;79;21345;-57
2022/02/16 03:12:59;;;;;;;10.70;6.15;;;;;;;2.23;62.13;100849.84;1755705;79;21809;-58
2022/02/16 03:15:29;;;;;;;10.55;5.55;;;;;;;2.26;62.03;100855.39;1765637;79;21101;-57
2022/02/16 03:17:55;;;;;;;10.98;6.40;;;;;;;2.26;62.09;100843.25;1744794;80;21052;-58
2022/02/16 03:20:22;;;;;;;10.10;5.22;;;;;;;2.28;62.04;100848.38;1748167;79;21454;-59
2022/02/16 03:22:49;;;;;;;10.88;6.25;;;;;;;2.29;62.11;100843.59;1738072;79;21594;-58
2022/02/16 03:25:16;;;;;;;11.85;6.53;;;;;;;2.29;62.20;100842.30;1761794;79;21081;-59
2022/02/16 03:27:43;;;;;;;9.18;5.50;;;;;;;2.29;62.30;100837.94;1773881;79;21725;-58
2022/02/16 03:30:11;;;;;;;13.83;5.87;;;;;;;2.29;62.31;100839.24;1770017;78;22289;-58
2022/02/16 03:32:43;;;;;;;13.48;5.47;;;;;;;2.31;62.42;100837.89;1768725;79;21039;-58
2022/02/16 03:35:10;;;;;;;10.43;5.08;;;;;;;2.34;62.58;100837.77;1772753;79;21051;-58
2022/02/16 03:37:38;;;;;;;10.70;5.40;;;;;;;2.36;62.59;100838.09;1763915;79;21008;-58
2022/02/16 03:40:07;;;;;;;12.18;5.30;;;;;;;2.40;62.61;100834.92;1765231;79;21000;-58
2022/02/16 03:42:36;;;;;;;12.55;6.03;;;;;;;2.41;62.58;100835.32;1766801;79;20999;-59
2022/02/16 03:45:03;;;;;;;11.08;4.95;;;;;;;2.41;62.52;100836.63;1768053;79;21049;-57
2022/02/16 03:47:31;;;;;;;10.40;5.47;;;;;;;2.41;62.52;100830.97;1764072;79;21077;-58
2022/02/16 03:50:01;;;;;;;10.40;5.42;;;;;;;2.40;62.60;100831.89;1755900;79;21004;-58
2022/02/16 03:52:30;;;;;;;13.53;5.92;;;;;;;2.43;62.73;100826.17;1770568;79;21046;-58
2022/02/16 03:54:57;;;;;;;12.10;5.25;;;;;;;2.44;62.72;100828.72;1740587;79;21532;-59
2022/02/16 03:57:24;;;;;;;9.58;5.35;;;;;;;2.45;62.84;100825.66;1773978;79;21904;-59
2022/02/16 03:59:50;;;;;;;9.35;5.03;;;;;;;2.46;62.86;100821.70;1740181;79;21816;-58
2022/02/16 04:02:28;;;;;;;12.78;4.85;;;;;;;2.52;62.96;100818.00;1753230;80;21570;-59
2022/02/16 04:04:55;;;;;;;10.00;5.17;;;;;;;2.55;62.98;100813.99;1719993;79;21066;-59
2022/02/16 04:07:22;;;;;;;7.22;4.33;;;;;;;2.60;62.94;100808.99;1755067;79;21256;-57
2022/02/16 04:09:48;;;;;;;13.18;5.70;;;;;;;2.62;62.96;100801.60;1763580;79;21015;-58
2022/02/16 04:12:15;;;;;;;13.38;5.55;;;;;;;2.64;63.04;100803.68;1765650;79;21074;-58
2022/02/16 04:14:43;;;;;;;12.75;5.22;;;;;;;2.63;63.18;100800.24;1672554;82;21143;-58
2022/02/16 04:17:09;;;;;;;10.65;5.35;;;;;;;2.64;63.42;100792.86;1762522;79;21063;-58
2022/02/16 04:19:37;;;;;;;11.95;5.87;;;;;;;2.66;63.47;100800.59;1761190;78;21713;-59
2022/02/16 04:22:04;;;;;;;11.70;6.20;;;;;;;2.66;63.56;100797.53;1767082;78;21081;-58
2022/02/16 04:24:31;;;;;;;11.57;5.10;;;;;;;2.67;63.73;100796.60;1768869;79;21118;-59
2022/02/16 04:26:57;;;;;;;10.53;5.95;;;;;;;2.73;63.76;100796.83;1702878;82;21098;-57
2022/02/16 04:29:24;;;;;;;9.63;5.35;;;;;;;2.84;63.62;100795.08;1757915;79;21125;-58
2022/02/16 04:31:51;;;;;;;13.45;5.95;;;;;;;2.92;63.51;100794.30;1709537;82;21501;-59
2022/02/16 04:34:18;;;;;;;11.85;5.65;;;;;;;2.97;63.51;100794.95;1768811;79;20999;-57
2022/02/16 04:36:44;;;;;;;16.17;6.08;;;;;;;3.02;63.65;100794.31;1759720;78;21073;-58
2022/02/16 04:39:12;;;;;;;11.55;6.28;;;;;;;3.05;63.65;100789.45;1768637;80;21061;-58
2022/02/16 04:41:38;;;;;;;10.93;5.37;;;;;;;3.07;63.71;100784.56;1729666;80;21072;-58
2022/02/16 04:44:07;;;;;;;10.63;5.60;;;;;;;3.10;63.68;100779.23;1763044;78;21127;-58
2022/02/16 04:46:35;;;;;;;10.93;5.95;;;;;;;3.10;63.68;100785.73;1772578;78;21610;-58
2022/02/16 04:49:03;;;;;;;15.13;5.92;;;;;;;3.07;63.66;100784.56;1760208;78;21962;-58
2022/02/16 04:51:30;;;;;;;11.65;5.70;;;;;;;3.06;63.74;100787.22;1778676;78;20992;-58
2022/02/16 04:53:57;;;;;;;12.28;6.08;;;;;;;3.07;63.76;100791.06;1763524;80;21033;-58
2022/02/16 04:56:24;;;;;;;11.60;5.60;;;;;;;3.06;64.03;100789.39;1765246;78;21147;-58
2022/02/16 04:58:50;;;;;;;10.15;5.58;;;;;;;3.11;64.07;100785.27;1771350;80;21034;-58
2022/02/16 05:01:20;;;;;;;10.72;6.03;;;;;;;3.19;63.81;100785.79;1767575;79;21077;-59
2022/02/16 05:03:47;;;;;;;11.10;5.95;;;;;;;3.28;63.82;100794.98;1773143;79;21133;-58
2022/02/16 05:06:14;;;;;;;14.50;6.67;;;;;;;3.33;63.74;100787.82;1730996;80;20984;-58
2022/02/16 05:08:40;;;;;;;11.57;6.33;;;;;;;3.34;63.92;100798.59;1772045;80;21139;-58
2022/02/16 05:11:07;;;;;;;11.70;6.25;;;;;;;3.37;63.87;100802.37;1749390;78;21089;-58
2022/02/16 05:13:40;;;;;;;12.78;6.47;;;;;;;3.43;64.00;100795.61;1769410;78;21095;-58
2022/02/16 05:16:07;;;;;;;13.45;6.70;;;;;;;3.46;63.74;100783.77;1763200;79;21030;-59
2022/02/16 05:18:35;;;;;;;13.55;6.85;;;;;;;3.46;63.60;100785.51;1774640;80;21145;-59
2022/02/16 05:21:03;;;;;;;12.78;6.72;;;;;;;3.45;63.59;100792.94;1767970;80;21183;-57
2022/02/16 05:23:32;;;;;;;12.47;5.95;;;;;;;3.46;63.64;100803.28;1751083;80;21114;-57
2022/02/16 05:26:01;;;;;;;9.88;6.17;;;;;;;3.48;63.49;100812.30;1759164;79;21089;-57
2022/02/16 05:28:28;;;;;;;13.90;6.08;;;;;;;3.46;63.28;100809.79;1742537;80;21058;-58
2022/02/16 05:30:54;;;;;;;11.57;5.83;;;;;;;3.43;63.29;100818.16;1761919;80;21058;-57
2022/02/16 05:33:21;;;;;;;12.35;6.40;;;;;;;3.40;63.32;100814.41;1740633;80;21178;-58
2022/02/16 05:35:49;;;;;;;12.80;5.75;;;;;;;3.43;63.27;100815.12;1770042;79;21042;-57
2022/02/16 05:38:16;;;;;;;10.28;5.15;;;;;;;3.49;63.28;100808.33;1761064;80;21078;-58
2022/02/16 05:40:43;;;;;;;12.95;6.30;;;;;;;3.52;63.30;100805.59;1754525;79;21078;-58
2022/02/16 05:43:12;;;;;;;10.88;5.72;;;;;;;3.53;63.38;100809.03;1771328;79;21030;-58
2022/02/16 05:45:42;;;;;;;12.45;6.17;;;;;;;3.52;63.49;100799.09;1766849;79;21796;-59
2022/02/16 05:48:10;;;;;;;12.70;6.37;;;;;;;3.52;63.54;100800.39;1756724;80;21110;-59
2022/02/16 05:50:39;;;;;;;11.12;5.65;;;;;;;3.57;63.82;100811.08;1766172;79;21034;-58
2022/02/16 05:53:05;;;;;;;11.55;6.37;;;;;;;3.60;63.69;100816.98;1767183;80;21047;-58
2022/02/16 05:55:32;;;;;;;11.78;6.50;;;;;;;3.60;63.67;100818.28;1767704;80;21042;-58
2022/02/16 05:57:59;;;;;;;14.73;6.47;;;;;;;3.59;63.56;100816.58;1743951;80;21734;-58
2022/02/16 06:00:26;;;;;;;12.47;6.85;;;;;;;3.59;63.75;100819.19;1743616;80;21387;-58
2022/02/16 06:02:52;;;;;;;11.90;5.42;;;;;;;3.59;63.68;100813.14;1742125;80;21034;-59
2022/02/16 06:05:19;;;;;;;12.95;7.12;;;;;;;3.57;63.69;100814.98;1712173;82;21073;-58
2022/02/16 06:07:46;;;;;;;13.83;6.58;;;;;;;3.54;63.86;100813.34;1766115;79;21055;-58
2022/02/16 06:10:12;;;;;;;12.90;6.55;;;;;;;3.60;63.91;100807.88;1745882;79;21094;-59
2022/02/16 06:12:41;;;;;;;11.78;6.10;;;;;;;3.71;63.78;100799.58;1768071;80;21090;-58
2022/02/16 06:15:09;;;;;;;14.10;6.78;;;;;;;3.81;63.63;100795.64;1756661;80;21561;-59
2022/02/16 06:17:38;;;;;;;11.30;6.70;;;;;;;3.87;63.58;100794.55;1747226;80;21043;-58
2022/02/16 06:20:07;;;;;;;16.60;7.47;;;;;;;3.88;63.56;100797.08;1769812;79;21622;-58
2022/02/16 06:22:36;;;;;;;12.23;7.42;;;;;;;3.93;63.71;100798.61;1757151;80;21060;-57
2022/02/16 06:25:05;;;;;;;16.93;7.10;;;;;;;3.94;63.61;100790.73;1735395;79;21035;-57
2022/02/16 06:27:34;;;;;;;14.68;7.10;;;;;;;3.96;63.67;100790.67;1762475;79;21087;-57
2022/02/16 06:30:07;;;;;;;12.90;6.70;;;;;;;3.93;63.61;100785.59;1748655;79;21024;-57
2022/02/16 06:32:38;;;;;;;16.45;6.62;;;;;;;3.88;63.73;100770.17;1754802;79;21555;-58
2022/02/16 06:35:06;;;;;;;14.25;7.10;;;;;;;3.85;63.96;100769.88;1761472;80;23281;-58
2022/02/16 06:37:35;;;;;;;14.40;7.95;;;;;;;3.84;64.25;100772.55;1759066;79;21050;-58
2022/02/16 06:40:03;;;;;;;14.20;7.53;;;;;;;3.85;64.36;100764.67;1745797;79;21018;-58
2022/02/16 06:42:30;;;;;;;12.82;5.87;;;;;;;3.94;64.30;100766.47;1759324;80;21046;-59
2022/02/16 06:44:57;;;;;;;15.48;6.67;;;;;;;4.04;64.09;100765.95;1742015;80;21034;-59
2022/02/16 06:47:25;;;;;;;11.15;6.90;;;;;;;4.12;64.10;100760.40;1760382;80;21215;-59
2022/02/16 06:49:52;;;;;;;12.10;7.03;;;;;;;4.18;64.08;100764.47;1758385;80;21101;-58
2022/02/16 06:52:18;;;;;;;12.25;6.97;;;;;;;4.20;64.32;100751.77;1737536;79;21121;-58
2022/02/16 06:54:46;;;;;;;13.43;7.42;;;;;;;4.23;64.39;100754.20;1760515;79;21094;-58
2022/02/16 06:57:13;;;;;;;17.60;7.20;;;;;;;4.26;64.35;100750.16;1712418;80;21082;-58
2022/02/16 06:59:53;;;;;;;12.45;6.97;;;;;;;4.30;64.33;100748.24;1754140;80;21131;-58
2022/02/16 07:02:20;;;;;;;14.30;7.33;;;;;;;4.32;64.41;100755.98;1747039;79;21076;-59
2022/02/16 07:04:47;;;;;;;13.98;7.97;;;;;;;4.33;64.27;100757.69;1753936;80;21035;-58
2022/02/16 07:07:14;;;;;;;14.87;7.53;;;;;;;4.31;64.29;100760.83;1733985;80;21249;-57
2022/02/16 07:09:40;;;;;;;14.30;7.12;;;;;;;4.28;64.39;100761.80;1752609;80;21351;-57
2022/02/16 07:12:09;;;;;;;15.68;6.70;;;;;;;4.27;64.52;100759.67;1759752;79;21059;-58
2022/02/16 07:14:36;;;;;;;13.25;7.12;;;;;;;4.32;64.49;100755.98;1752034;79;21562;-57
2022/02/16 07:17:04;;;;;;;15.83;7.75;;;;;;;4.41;64.30;100757.70;1721807;82;21709;-59
2022/02/16 07:19:31;;;;;;;17.17;7.33;;;;;;;4.51;64.34;100753.36;1740174;80;21137;-60
2022/02/16 07:22:09;;;;;;;12.65;7.05;;;;;;;4.61;64.32;100751.98;1766417;79;21038;-57
2022/02/16 07:24:37;;;;;;;11.63;7.22;;;;;;;4.67;64.24;100746.45;1760377;79;21050;-57
2022/02/16 07:27:03;;;;;;;15.53;7.33;;;;;;;4.70;64.08;100745.00;1746229;79;21077;-58
2022/02/16 07:29:32;;;;;;;14.53;7.40;;;;;;;4.71;63.80;100739.31;1756890;79;21090;-59
2022/02/16 07:31:59;;;;;;;15.50;8.95;;;;;;;4.67;63.71;100739.09;1764809;79;21125;-57
2022/02/16 07:34:31;;;;;;;17.65;8.43;;;;;;;4.63;63.71;100740.55;1742819;79;21181;-58
2022/02/16 07:37:01;;;;;;;15.90;8.40;;;;;;;4.61;63.67;100746.30;1763314;79;21361;-57
2022/02/16 07:39:29;;;;;;;16.55;7.60;;;;;;;4.55;63.70;100730.12;1767959;79;21122;-57
2022/02/16 07:41:55;;;;;;;14.58;8.48;;;;;;;4.52;63.71;100732.41;1761003;79;21136;-58
2022/02/16 07:44:26;;;;;;;14.35;8.85;;;;;;;4.47;63.86;100735.70;1762490;79;21062;-57
2022/02/16 07:46:55;;;;;;;19.82;9.50;;;;;;;4.47;63.76;100726.58;1761642;79;21035;-57
2022/02/16 07:49:21;;;;;;;15.88;10.03;;;;;;;4.51;63.67;100732.51;1741871;79;21164;-57
2022/02/16 07:51:59;;;;;;;16.15;9.20;;;;;;;4.53;63.59;100722.38;1638512;85;21922;-57
2022/02/16 07:54:28;;;;;;;13.03;8.23;;;;;;;4.55;63.68;100721.83;1726437;80;21038;-57
2022/02/16 07:56:56;;;;;;;17.50;7.65;;;;;;;4.54;63.67;100717.56;1721980;81;21106;-58
2022/02/16 07:59:23;;;;;;;14.75;7.55;;;;;;;4.49;63.73;100710.43;1764281;79;21057;-58
2022/02/16 08:01:50;;;;;;;19.15;9.10;;;;;;;4.46;63.76;100715.79;1745364;79;21702;-58
2022/02/16 08:04:17;;;;;;;18.90;8.90;;;;;;;4.45;63.86;100719.30;1766086;79;21047;-58
2022/02/16 08:06:47;;;;;;;19.48;9.55;;;;;;;4.42;63.93;100712.93;1739037;80;21039;-58
2022/02/16 08:09:14;;;;;;;19.02;9.08;;;;;;;4.39;63.99;100707.42;1741838;79;21035;-58
2022/02/16 08:11:43;;;;;;;13.35;7.85;;;;;;;4.38;64.28;100709.64;1767418;79;22019;-56
2022/02/16 08:14:10;;;;;;;16.90;7.72;;;;;;;4.37;64.43;100709.70;1763180;79;21133;-57
2022/02/16 08:16:44;;;;;;;16.07;8.65;;;;;;;4.35;64.33;100712.38;1694114;82;21099;-58
2022/02/16 08:19:12;;;;;;;12.95;8.00;;;;;;;4.28;64.26;100709.23;1766418;79;21361;-59
2022/02/16 08:21:40;;;;;;;13.22;8.15;;;;;;;4.25;64.32;100708.55;1739434;79;22252;-58
2022/02/16 08:24:07;;;;;;;13.58;8.95;;;;;;;4.31;64.10;100712.63;1764682;79;21114;-57
2022/02/16 08:26:34;;;;;;;14.80;7.65;;;;;;;4.34;64.06;100709.42;1762385;79;21154;-57
2022/02/16 08:30:52;;;;;;;11.78;7.08;;;;;;;4.31;63.76;100691.33;1793655;77;22663;-58
2022/02/16 08:33:23;;;;;;;13.43;8.33;;;;;;;4.27;63.53;100697.62;1743298;80;21744;-60
2022/02/16 08:35:57;;;;;;;15.28;7.67;;;;;;;4.22;63.42;100692.62;1769718;79;21907;-58
2022/02/16 08:38:23;;;;;;;13.38;8.45;;;;;;;4.17;63.62;100693.74;1775591;79;21144;-58
2022/02/16 08:40:50;;;;;;;13.05;7.62;;;;;;;4.18;63.76;100687.63;1745312;80;21036;-58
2022/02/16 08:43:16;;;;;;;16.60;8.80;;;;;;;4.17;63.44;100693.31;1733860;81;21082;-58
2022/02/16 08:45:43;;;;;;;12.80;7.92;;;;;;;4.20;63.60;100692.30;1712951;82;21065;-59
2022/02/16 08:48:09;;;;;;;13.10;7.95;;;;;;;4.22;63.56;100690.45;1718324;82;21155;-59
2022/02/16 08:50:36;;;;;;;15.65;8.53;;;;;;;4.23;63.39;100689.08;1722135;82;21045;-59
2022/02/16 08:53:02;;;;;;;15.58;8.23;;;;;;;4.26;63.50;100690.23;1710725;82;21058;-59
2022/02/16 08:55:29;;;;;;;16.02;7.70;;;;;;;4.34;63.53;100684.66;1719517;82;21119;-58
2022/02/16 08:57:55;;;;;;;14.00;9.00;;;;;;;4.43;63.40;100679.45;1687005;82;21082;-59
2022/02/16 09:00:23;;;;;;;14.58;8.90;;;;;;;4.56;62.93;100683.14;1686326;82;21573;-59
2022/02/16 09:02:51;;;;;;;14.40;8.95;;;;;;;4.69;62.83;100679.90;1718506;82;21094;-59
2022/02/16 09:05:18;;;;;;;14.13;9.00;;;;;;;4.78;62.65;100674.23;1731258;81;21082;-57
2022/02/16 09:07:45;;;;;;;17.60;8.70;;;;;;;4.87;62.55;100677.66;1687166;81;21098;-59
2022/02/16 09:10:12;;;;;;;16.85;8.73;;;;;;;4.96;62.40;100678.50;1707860;83;21142;-61
2022/02/16 09:12:40;;;;;;;15.95;9.48;;;;;;;5.02;62.05;100676.02;1714081;83;21063;-59
2022/02/16 09:15:08;;;;;;;15.30;8.50;;;;;;;5.06;61.80;100674.09;1708674;83;21011;-59
2022/02/16 09:17:35;;;;;;;13.53;8.45;;;;;;;5.05;61.76;100671.95;1705856;83;21094;-59
2022/02/16 09:20:03;;;;;;;17.70;9.53;;;;;;;5.10;61.60;100673.02;1707206;83;21015;-58
2022/02/16 09:22:29;;;;;;;20.55;9.55;;;;;;;5.09;61.54;100672.63;1681913;83;21070;-58
2022/02/16 09:24:56;;;;;;;17.27;9.80;;;;;;;5.08;61.33;100670.50;1710302;83;21164;-59
2022/02/16 09:27:23;;;;;;;14.95;8.88;;;;;;;5.05;61.22;100663.30;1705397;83;21086;-58
2022/02/16 09:29:49;;;;;;;17.00;9.18;;;;;;;4.98;61.11;100655.78;1708203;83;21119;-58
2022/02/16 09:32:17;;;;;;;16.12;9.25;;;;;;;4.91;61.24;100653.13;1674476;83;21489;-58
2022/02/16 09:34:45;;;;;;;15.35;8.83;;;;;;;4.86;61.35;100649.91;1755329;80;21258;-59
2022/02/16 09:37:12;;;;;;;15.35;9.33;;;;;;;4.80;61.65;100649.75;1753799;80;21124;-59
2022/02/16 09:39:39;;;;;;;16.12;9.35;;;;;;;4.82;61.55;100650.98;1756868;80;21019;-58
2022/02/16 09:42:06;;;;;;;17.65;9.63;;;;;;;4.82;61.50;100648.38;1753956;80;21086;-58
2022/02/16 09:44:58;;;;;;;17.50;7.92;;;;;;;4.89;61.44;100645.81;1733980;80;22275;-58
2022/02/16 09:47:25;;;;;;;13.68;7.20;;;;;;;4.96;61.29;100645.91;1738780;80;21173;-59
2022/02/16 09:49:51;;;;;;;13.68;7.58;;;;;;;4.97;61.12;100644.95;1751553;80;21133;-60
2022/02/16 09:52:20;;;;;;;13.00;7.67;;;;;;;4.93;61.39;100640.01;1756835;80;21038;-57
2022/02/16 09:54:46;;;;;;;13.53;7.10;;;;;;;4.95;61.38;100645.98;1756563;80;21140;-58
2022/02/16 09:57:13;;;;;;;18.32;8.73;;;;;;;4.90;61.36;100641.00;1752595;80;21047;-57
2022/02/16 09:59:39;;;;;;;15.32;7.95;;;;;;;4.84;61.43;100638.70;1700149;82;21143;-58
2022/02/16 10:02:09;;;;;;;14.38;7.33;;;;;;;4.83;61.60;100626.60;1730483;80;21588;-59
2022/02/16 10:04:36;;;;;;;14.35;6.37;;;;;;;4.83;61.36;100630.05;1731999;80;21091;-58
2022/02/16 10:07:24;;;;;;;14.85;7.12;;;;;;;4.82;61.41;100624.47;1760331;80;21758;-59
2022/02/16 10:09:51;;;;;;;10.72;6.15;;;;;;;4.80;61.33;100626.29;1752491;80;21042;-59
2022/02/16 10:12:18;;;;;;;12.58;7.42;;;;;;;4.77;61.54;100619.09;1752718;80;21012;-58
2022/02/16 10:14:45;;;;;;;11.03;6.00;;;;;;;4.73;61.68;100612.37;1755516;80;21145;-59
2022/02/16 10:17:23;;;;;;;18.27;7.45;;;;;;;4.71;61.84;100610.27;1755969;80;21071;-59
2022/02/16 10:19:55;;;;;;;13.95;7.20;;;;;;;4.73;61.90;100601.94;1754660;80;21513;-58
2022/02/16 10:22:30;;;;;;;10.18;5.62;;;;;;;4.78;61.86;100584.29;1754725;80;21524;-60
2022/02/16 10:25:02;;;;;;;12.58;6.67;;;;;;;4.90;61.64;100588.02;1753239;80;21116;-59
2022/02/16 10:27:29;;;;;;;11.70;6.85;;;;;;;4.94;61.67;100583.86;1729863;80;21799;-58
2022/02/16 10:29:55;;;;;;;12.93;7.00;;;;;;;4.98;61.73;100593.19;1731879;80;21570;-58
2022/02/16 10:32:31;;;;;;;11.70;6.37;;;;;;;4.98;61.49;100579.33;1736270;80;21587;-59
2022/02/16 10:35:01;;;;;;;15.03;7.67;;;;;;;4.95;61.48;100578.17;1717726;81;21070;-59
2022/02/16 10:37:39;;;;;;;15.08;7.47;;;;;;;4.90;61.52;100574.97;1734939;80;21133;-59
2022/02/16 10:40:12;;;;;;;15.00;7.33;;;;;;;4.80;61.76;100572.84;1736776;80;21851;-59
2022/02/16 10:42:59;;;;;;;12.13;6.78;;;;;;;4.75;62.01;100564.42;1718577;81;21438;-58
2022/02/16 10:45:28;;;;;;;10.50;6.35;;;;;;;4.74;62.33;100552.33;1737654;81;21024;-60
2022/02/16 10:48:01;;;;;;;13.08;6.50;;;;;;;4.75;62.28;100547.95;1736291;80;21432;-59
2022/02/16 10:50:37;;;;;;;13.58;6.83;;;;;;;4.73;62.16;100549.33;1716192;81;21094;-58
2022/02/16 10:53:08;;;;;;;10.90;6.50;;;;;;;4.76;62.25;100547.03;1741885;81;21128;-59
2022/02/16 10:55:49;;;;;;;13.40;7.55;;;;;;;4.83;62.09;100546.61;1732951;81;21364;-57
2022/02/16 10:58:24;;;;;;;13.43;7.67;;;;;;;4.90;62.19;100548.90;1735614;80;21042;-58
2022/02/16 11:00:55;;;;;;;12.05;6.45;;;;;;;4.97;62.21;100543.73;1736111;81;21082;-57
2022/02/16 11:03:34;;;;;;;14.43;6.75;;;;;;;5.02;62.12;100535.19;1736369;80;22559;-59
2022/02/16 11:06:05;;;;;;;14.40;7.92;;;;;;;5.02;62.00;100532.11;1718694;82;21226;-58
2022/02/16 11:08:33;;;;;;;15.00;8.25;;;;;;;5.05;61.99;100528.51;1733042;80;21090;-59
2022/02/16 11:11:06;;;;;;;13.38;7.55;;;;;;;5.07;61.88;100534.95;1731684;82;21125;-58
2022/02/16 11:13:34;;;;;;;13.25;7.00;;;;;;;5.07;61.75;100535.77;1736162;80;21019;-58
2022/02/16 11:16:01;;;;;;;13.68;7.83;;;;;;;4.98;61.72;100524.08;1715899;80;21141;-58
2022/02/16 11:18:33;;;;;;;14.85;8.35;;;;;;;4.91;61.84;100524.05;1737327;81;21977;-59
2022/02/16 11:21:14;;;;;;;16.67;7.87;;;;;;;4.85;62.06;100513.94;1736836;80;21673;-59
2022/02/16 11:23:50;;;;;;;12.78;6.70;;;;;;;4.87;62.24;100509.48;1735260;80;21531;-59
2022/02/16 11:26:40;;;;;;;10.68;6.55;;;;;;;4.97;61.96;100501.53;1737226;81;21547;-57
2022/02/16 11:29:28;;;;;;;15.35;6.75;;;;;;;5.14;61.56;100501.90;1742635;81;21059;-58
2022/02/16 11:32:16;;;;;;;12.58;7.17;;;;;;;5.26;61.32;100509.54;1763344;80;21162;-58
2022/02/16 11:34:45;;;;;;;13.25;8.18;;;;;;;5.29;61.18;100507.20;1760769;79;21077;-59